Time;durP1;ratioP1;P1;durP2;ratioP2;P2;SDS_P1;SDS_P2;PMS_P1;PMS_P2;Temp;Humidity;BMP_temperature;BMP_pressure;BME280_temperature;BME280_humidity;BME280_pressure;Samples;Min_cycle;Max_cycle;Signal;HPM_P1;HPM_P2
2022/01/29 00:01:04;;;;;;;62.95;37.03;;;6.60;99.90;;;;;;5057847;28;20024;-59
2022/01/29 00:03:30;;;;;;;58.90;35.17;;;6.70;99.90;;;;;;5075847;28;20078;-59
2022/01/29 00:05:58;;;;;;;66.63;36.58;;;6.70;99.90;;;;;;5075503;28;20020;-59
2022/01/29 00:08:24;;;;;;;67.93;36.95;;;6.70;99.90;;;;;;5075778;28;20095;-59
2022/01/29 00:10:54;;;;;;;65.72;35.72;;;6.70;99.90;;;;;;5075407;28;20075;-59
2022/01/29 00:13:20;;;;;;;68.55;37.38;;;6.60;99.90;;;;;;5057717;28;20025;-59
2022/01/29 00:15:45;;;;;;;67.03;35.33;;;6.70;99.90;;;;;;5057516;28;20081;-59
2022/01/29 00:18:11;;;;;;;63.50;35.90;;;6.60;99.90;;;;;;5075600;28;20105;-59
2022/01/29 00:20:38;;;;;;;67.90;36.97;;;6.60;99.90;;;;;;5075402;28;20020;-59
2022/01/29 00:23:03;;;;;;;61.75;35.95;;;6.60;99.90;;;;;;5057405;28;20024;-59
2022/01/29 00:25:29;;;;;;;65.88;36.90;;;6.60;99.90;;;;;;5075295;28;20492;-59
2022/01/29 00:27:56;;;;;;;64.63;34.42;;;6.60;99.90;;;;;;5057340;28;20032;-59
2022/01/29 00:30:29;;;;;;;67.75;36.63;;;6.60;99.90;;;;;;5075412;28;20549;-59
2022/01/29 00:32:55;;;;;;;67.43;35.85;;;6.60;99.90;;;;;;5075084;28;20103;-60
2022/01/29 00:35:20;;;;;;;66.63;37.78;;;6.60;99.90;;;;;;5075271;28;20456;-59
2022/01/29 00:37:46;;;;;;;63.50;36.38;;;6.60;99.90;;;;;;5075074;28;20051;-59
2022/01/29 00:40:13;;;;;;;59.70;35.20;;;6.50;99.90;;;;;;5075025;28;20020;-59
2022/01/29 00:42:39;;;;;;;72.90;38.25;;;6.60;99.90;;;;;;5057001;28;20025;-59
2022/01/29 00:45:06;;;;;;;67.40;38.30;;;6.60;99.90;;;;;;5057070;28;20032;-59
2022/01/29 00:47:32;;;;;;;74.72;37.80;;;6.60;99.90;;;;;;5075005;28;20025;-59
2022/01/29 00:49:57;;;;;;;64.25;37.83;;;6.60;99.90;;;;;;5074748;28;20070;-59
2022/01/29 00:52:23;;;;;;;65.13;36.20;;;6.60;99.90;;;;;;5056974;28;20056;-59
2022/01/29 00:54:48;;;;;;;66.50;35.33;;;6.50;99.90;;;;;;5057193;28;20445;-59
2022/01/29 00:57:14;;;;;;;69.20;37.05;;;6.50;99.90;;;;;;5056706;28;20048;-60
2022/01/29 00:59:39;;;;;;;65.93;36.47;;;6.50;99.90;;;;;;5074839;28;20184;-59
2022/01/29 01:02:08;;;;;;;66.93;37.13;;;6.60;99.90;;;;;;5056720;28;20035;-59
2022/01/29 01:04:36;;;;;;;67.88;38.15;;;6.60;99.90;;;;;;5056486;28;20025;-59
2022/01/29 01:07:02;;;;;;;70.05;38.92;;;6.60;99.90;;;;;;5075093;28;20028;-59
2022/01/29 01:09:27;;;;;;;64.93;36.50;;;6.60;99.90;;;;;;5074518;28;20082;-60
2022/01/29 01:11:53;;;;;;;68.63;38.70;;;6.60;99.90;;;;;;5074245;28;20060;-59
2022/01/29 01:14:18;;;;;;;65.55;38.05;;;6.60;99.90;;;;;;5056652;28;20020;-59
2022/01/29 01:16:44;;;;;;;65.13;37.42;;;6.60;99.90;;;;;;5056440;28;20067;-59
2022/01/29 01:19:09;;;;;;;63.97;36.88;;;6.60;99.90;;;;;;5056634;28;20024;-59
2022/01/29 01:21:35;;;;;;;68.03;37.88;;;6.60;99.90;;;;;;5074381;28;20125;-59
2022/01/29 01:24:00;;;;;;;68.82;38.88;;;6.60;99.90;;;;;;5056578;28;20021;-59
2022/01/29 01:26:26;;;;;;;70.80;37.88;;;6.60;99.90;;;;;;5074204;28;20032;-59
2022/01/29 01:28:52;;;;;;;61.67;36.60;;;6.70;99.90;;;;;;5074362;28;20119;-59
2022/01/29 01:31:17;;;;;;;63.47;36.95;;;6.70;99.90;;;;;;5074150;28;20499;-59
2022/01/29 01:33:44;;;;;;;70.13;39.05;;;6.70;99.90;;;;;;5056009;28;20052;-59
2022/01/29 01:36:09;;;;;;;65.90;38.33;;;6.70;99.90;;;;;;5056206;28;20031;-59
2022/01/29 01:38:47;;;;;;;66.90;36.70;;;6.60;99.90;;;;;;5074008;28;20028;-60
2022/01/29 01:41:16;;;;;;;65.20;38.67;;;6.70;99.90;;;;;;5073970;28;20028;-60
2022/01/29 01:43:42;;;;;;;62.00;35.67;;;6.70;99.90;;;;;;5073882;28;20100;-60
2022/01/29 01:46:07;;;;;;;65.72;38.20;;;6.70;99.90;;;;;;5055982;28;20572;-59
2022/01/29 01:48:33;;;;;;;63.67;37.25;;;6.70;99.90;;;;;;5073956;28;20039;-59
2022/01/29 01:50:58;;;;;;;60.30;38.45;;;6.70;99.90;;;;;;5055729;28;20119;-59
2022/01/29 01:53:24;;;;;;;65.28;37.58;;;6.70;99.90;;;;;;5055901;28;20025;-59
2022/01/29 01:55:50;;;;;;;53.55;33.97;;;6.70;99.90;;;;;;5073731;28;20042;-59
2022/01/29 01:58:16;;;;;;;63.40;37.65;;;6.70;99.90;;;;;;5073586;28;20470;-59
2022/01/29 02:00:41;;;;;;;62.17;38.50;;;6.70;99.90;;;;;;5055599;28;20024;-59
2022/01/29 02:03:08;;;;;;;58.45;35.67;;;6.70;99.90;;;;;;5073548;28;20016;-59
2022/01/29 02:05:34;;;;;;;65.60;37.10;;;6.70;99.90;;;;;;5055660;28;20059;-59
2022/01/29 02:08:02;;;;;;;63.13;38.13;;;6.70;99.90;;;;;;5073537;28;20068;-59
2022/01/29 02:10:28;;;;;;;65.05;38.13;;;6.70;99.90;;;;;;5055442;28;20048;-59
2022/01/29 02:13:02;;;;;;;66.90;38.70;;;6.70;99.90;;;;;;5073217;28;20044;-59
2022/01/29 02:15:29;;;;;;;67.00;38.03;;;6.70;99.90;;;;;;5054740;28;20027;-60
2022/01/29 02:17:54;;;;;;;69.45;39.00;;;6.70;99.90;;;;;;5073167;28;20044;-60
2022/01/29 02:20:26;;;;;;;64.78;36.97;;;6.70;99.90;;;;;;5073326;28;20488;-59
2022/01/29 02:22:53;;;;;;;66.75;38.58;;;6.70;99.90;;;;;;5055228;28;20510;-59
2022/01/29 02:25:42;;;;;;;59.33;35.97;;;6.70;99.90;;;;;;5073242;28;20409;-59
2022/01/29 02:28:11;;;;;;;63.75;37.55;;;6.70;99.90;;;;;;5073148;28;20020;-59
2022/01/29 02:30:39;;;;;;;60.45;35.28;;;6.70;99.90;;;;;;5055209;28;20031;-59
2022/01/29 02:33:09;;;;;;;57.17;35.05;;;6.70;99.90;;;;;;5054927;28;20081;-59
2022/01/29 02:35:47;;;;;;;62.67;36.80;;;6.70;99.90;;;;;;5072891;28;20099;-59
2022/01/29 02:38:17;;;;;;;60.08;36.55;;;6.70;99.90;;;;;;5055027;28;20089;-59
2022/01/29 02:40:47;;;;;;;;;;;6.70;99.90;;;;;;5073300;28;20032;-59
2022/01/29 02:43:18;;;;;;;58.00;34.75;;;6.70;99.90;;;;;;5072767;28;20101;-60
2022/01/29 02:45:45;;;;;;;63.55;37.10;;;6.60;99.90;;;;;;5072767;28;20488;-59
2022/01/29 02:48:34;;;;;;;55.53;34.55;;;6.60;99.90;;;;;;5072960;28;20024;-59
2022/01/29 02:50:59;;;;;;;61.10;37.75;;;6.70;99.90;;;;;;5054077;28;20032;-60
2022/01/29 02:53:25;;;;;;;58.97;35.88;;;6.60;99.90;;;;;;5072857;28;20105;-59
2022/01/29 02:55:51;;;;;;;56.78;34.55;;;6.60;99.90;;;;;;5054642;28;20484;-59
2022/01/29 02:58:16;;;;;;;58.03;35.70;;;6.60;99.90;;;;;;5054870;28;20074;-59
2022/01/29 03:00:42;;;;;;;55.33;34.97;;;6.60;99.90;;;;;;5072657;28;20131;-59
2022/01/29 03:03:07;;;;;;;51.28;32.53;;;6.60;99.90;;;;;;5054598;28;20044;-60
2022/01/29 03:05:33;;;;;;;56.05;34.92;;;6.60;99.90;;;;;;5054733;28;20029;-59
2022/01/29 03:07:58;;;;;;;53.50;33.63;;;6.60;99.90;;;;;;5051706;28;20025;-59
2022/01/29 03:10:25;;;;;;;49.75;32.40;;;6.60;99.90;;;;;;5034701;28;20115;-59
2022/01/29 03:12:51;;;;;;;49.88;32.30;;;6.60;99.90;;;;;;5052671;28;20551;-59
2022/01/29 03:15:17;;;;;;;47.80;32.55;;;6.70;99.90;;;;;;5052365;28;20104;-59
2022/01/29 03:17:42;;;;;;;53.00;33.03;;;6.70;99.90;;;;;;5052445;28;20064;-59
2022/01/29 03:20:10;;;;;;;46.85;32.33;;;6.70;99.90;;;;;;5034796;28;20388;-59
2022/01/29 03:22:36;;;;;;;49.35;31.48;;;6.70;99.90;;;;;;5052400;28;20021;-59
2022/01/29 03:25:02;;;;;;;46.60;31.70;;;6.70;99.90;;;;;;5034569;28;20032;-59
2022/01/29 03:27:27;;;;;;;50.20;31.58;;;6.70;99.90;;;;;;5054643;28;20025;-59
2022/01/29 03:29:53;;;;;;;48.30;30.05;;;6.70;99.90;;;;;;5056504;28;20108;-59
2022/01/29 03:32:18;;;;;;;47.75;31.38;;;6.70;99.90;;;;;;5056239;28;20049;-60
2022/01/29 03:34:44;;;;;;;43.92;30.75;;;6.70;99.90;;;;;;5055705;28;20025;-59
2022/01/29 03:37:09;;;;;;;41.17;28.25;;;6.70;99.90;;;;;;5056414;28;20028;-59
2022/01/29 03:39:36;;;;;;;44.42;28.65;;;6.70;99.90;;;;;;5049746;28;20027;-59
2022/01/29 03:42:06;;;;;;;45.95;30.88;;;6.80;99.90;;;;;;5076318;28;20491;-59
2022/01/29 03:44:32;;;;;;;46.60;30.92;;;6.80;99.90;;;;;;5058113;28;20162;-59
2022/01/29 03:46:58;;;;;;;46.42;31.20;;;6.80;99.90;;;;;;5058227;28;20123;-59
2022/01/29 03:49:23;;;;;;;49.05;31.55;;;6.80;99.90;;;;;;5076228;28;20024;-59
2022/01/29 03:51:49;;;;;;;48.53;32.47;;;6.80;99.90;;;;;;5076000;28;20033;-59
2022/01/29 03:54:14;;;;;;;48.72;31.65;;;6.80;99.90;;;;;;5076026;28;20052;-59
2022/01/29 03:56:40;;;;;;;52.60;32.42;;;6.80;99.90;;;;;;5058110;28;20111;-59
2022/01/29 03:59:06;;;;;;;49.50;31.90;;;6.90;99.90;;;;;;5058062;28;20115;-59
2022/01/29 04:01:31;;;;;;;61.55;36.35;;;6.90;99.90;;;;;;5057983;28;20109;-59
2022/01/29 04:03:57;;;;;;;52.47;33.13;;;6.90;99.90;;;;;;5075853;28;20060;-60
2022/01/29 04:06:24;;;;;;;56.47;37.13;;;6.80;99.90;;;;;;5075895;28;20086;-59
2022/01/29 04:08:49;;;;;;;53.83;34.00;;;6.90;99.90;;;;;;5057910;28;20020;-59
2022/01/29 04:11:15;;;;;;;64.32;38.58;;;6.90;99.90;;;;;;5057725;28;20047;-59
2022/01/29 04:13:44;;;;;;;60.95;37.88;;;6.90;99.90;;;;;;5075621;28;20028;-59
2022/01/29 04:16:14;;;;;;;64.40;37.87;;;6.90;99.90;;;;;;5074830;28;20032;-59
2022/01/29 04:18:39;;;;;;;65.15;38.42;;;7.00;99.90;;;;;;5057090;28;20377;-59
2022/01/29 04:21:06;;;;;;;58.58;36.20;;;6.90;99.90;;;;;;5049912;28;20074;-59
2022/01/29 04:23:33;;;;;;;74.15;42.35;;;7.00;99.90;;;;;;5063834;28;20048;-59
2022/01/29 04:26:00;;;;;;;62.97;38.20;;;6.90;99.90;;;;;;5053327;28;20044;-59
2022/01/29 04:28:30;;;;;;;68.40;39.13;;;7.00;99.90;;;;;;5056353;28;20103;-59
2022/01/29 04:31:00;;;;;;;65.47;40.40;;;7.00;99.90;;;;;;5059180;28;20017;-59
2022/01/29 04:33:29;;;;;;;69.88;41.97;;;7.00;99.90;;;;;;5044621;28;20124;-59
2022/01/29 04:36:00;;;;;;;68.18;41.08;;;7.00;99.90;;;;;;5060654;28;20012;-59
2022/01/29 04:38:27;;;;;;;70.30;40.47;;;7.10;99.90;;;;;;5058372;28;20040;-59
2022/01/29 04:40:53;;;;;;;71.32;41.40;;;7.10;99.90;;;;;;5056304;28;20021;-59
2022/01/29 04:43:19;;;;;;;73.20;43.60;;;7.10;99.90;;;;;;5053922;28;20033;-59
2022/01/29 04:45:45;;;;;;;71.40;40.53;;;7.10;99.90;;;;;;5064497;28;20024;-59
2022/01/29 04:48:10;;;;;;;64.95;38.75;;;7.10;99.90;;;;;;5056319;28;20028;-59
2022/01/29 04:50:36;;;;;;;72.68;41.70;;;7.10;99.90;;;;;;5055643;28;20025;-59
2022/01/29 04:53:02;;;;;;;69.65;40.67;;;7.10;99.90;;;;;;5058675;28;20021;-59
2022/01/29 04:55:27;;;;;;;66.68;40.25;;;7.20;99.90;;;;;;5056089;28;20021;-59
2022/01/29 04:57:53;;;;;;;71.10;40.15;;;7.20;99.90;;;;;;5054104;28;20397;-59
2022/01/29 05:00:21;;;;;;;68.72;40.13;;;7.20;99.90;;;;;;5056441;28;20040;-59
2022/01/29 05:02:55;;;;;;;67.78;39.38;;;7.20;99.90;;;;;;5055688;28;20083;-60
2022/01/29 05:05:21;;;;;;;69.28;39.95;;;7.20;99.90;;;;;;5055791;28;20469;-59
2022/01/29 05:07:47;;;;;;;69.53;40.25;;;7.20;99.90;;;;;;5037949;28;20029;-59
2022/01/29 05:10:13;;;;;;;75.65;40.75;;;7.30;99.90;;;;;;5058298;28;20035;-59
2022/01/29 05:12:51;;;;;;;71.10;42.13;;;7.30;99.90;;;;;;5055611;28;20029;-59
2022/01/29 05:15:29;;;;;;;64.88;38.13;;;7.30;99.90;;;;;;5062624;28;20021;-59
2022/01/29 05:28:51;;;;;;;64.53;37.80;;;7.40;99.90;;;;;;5058298;28;20104;-59
2022/01/29 05:31:16;;;;;;;62.85;36.97;;;7.40;99.90;;;;;;5053790;28;20044;-59
2022/01/29 05:33:42;;;;;;;70.30;39.47;;;7.40;99.90;;;;;;5052465;28;20045;-59
2022/01/29 05:36:07;;;;;;;66.65;39.92;;;7.50;99.90;;;;;;5063280;28;20373;-60
2022/01/29 05:38:33;;;;;;;67.32;38.55;;;7.50;99.90;;;;;;5054168;28;20032;-59
2022/01/29 05:40:59;;;;;;;69.05;39.22;;;7.50;99.90;;;;;;5061944;28;20036;-59
2022/01/29 05:43:25;;;;;;;67.68;37.88;;;7.50;99.90;;;;;;5061383;28;20554;-59
2022/01/29 05:45:50;;;;;;;66.03;38.53;;;7.50;99.90;;;;;;5037527;28;20028;-59
2022/01/29 05:48:16;;;;;;;65.03;37.25;;;7.60;99.90;;;;;;5031616;28;20476;-59
2022/01/29 05:50:42;;;;;;;65.18;38.28;;;7.60;99.90;;;;;;5036543;28;20017;-59
2022/01/29 05:53:07;;;;;;;65.00;38.08;;;7.60;99.90;;;;;;5031613;28;20150;-59
2022/01/29 05:55:33;;;;;;;64.97;37.35;;;7.70;99.90;;;;;;5049760;28;20032;-59
2022/01/29 05:57:58;;;;;;;62.67;36.60;;;7.70;99.90;;;;;;5060680;28;20052;-59
2022/01/29 06:00:24;;;;;;;67.05;38.30;;;7.70;99.90;;;;;;5056748;28;20104;-59
2022/01/29 06:03:19;;;;;;;60.78;37.97;;;7.80;99.90;;;;;;5057654;28;20021;-59
2022/01/29 06:05:45;;;;;;;61.97;37.15;;;7.80;99.90;;;;;;5039389;28;20036;-59
2022/01/29 06:08:10;;;;;;;66.88;38.05;;;7.80;99.90;;;;;;5060460;28;20028;-59
2022/01/29 06:10:36;;;;;;;58.33;35.10;;;7.90;99.90;;;;;;5039699;28;20051;-59
2022/01/29 06:13:12;;;;;;;56.65;35.75;;;7.90;99.90;;;;;;5096117;27;20900;-58
2022/01/29 06:15:42;;;;;;;56.75;36.10;;;7.90;99.90;;;;;;5086166;28;20115;-58
2022/01/29 06:18:13;;;;;;;56.42;35.47;;;8.00;99.90;;;;;;5088460;28;20052;-58
2022/01/29 06:20:42;;;;;;;57.30;35.08;;;8.00;99.90;;;;;;5091495;28;20024;-58
2022/01/29 06:23:09;;;;;;;54.53;34.60;;;8.00;99.90;;;;;;5086360;28;20418;-58
2022/01/29 06:25:34;;;;;;;57.15;35.88;;;8.10;99.90;;;;;;5088117;28;20020;-58
2022/01/29 06:28:00;;;;;;;55.55;35.58;;;8.10;99.90;;;;;;5083226;28;20024;-58
2022/01/29 06:30:26;;;;;;;49.80;33.53;;;8.10;99.90;;;;;;5085989;28;20032;-58
2022/01/29 06:32:51;;;;;;;49.72;32.45;;;8.10;99.90;;;;;;5083007;28;20035;-58
2022/01/29 06:35:17;;;;;;;52.80;33.35;;;8.10;99.90;;;;;;5085495;28;20468;-58
2022/01/29 06:37:43;;;;;;;51.80;32.90;;;8.20;99.90;;;;;;5085340;28;20456;-58
2022/01/29 06:40:09;;;;;;;51.33;33.70;;;8.20;99.90;;;;;;5083905;28;20379;-58
2022/01/29 06:42:35;;;;;;;48.10;32.13;;;8.20;99.90;;;;;;5085536;28;20034;-58
2022/01/29 06:45:01;;;;;;;46.00;30.95;;;8.30;99.90;;;;;;5085324;28;20032;-58
2022/01/29 06:47:26;;;;;;;45.72;29.73;;;8.30;99.90;;;;;;5082988;28;20059;-58
2022/01/29 06:49:52;;;;;;;46.15;29.70;;;8.30;99.90;;;;;;5083843;28;20059;-57
2022/01/29 06:52:28;;;;;;;44.97;29.08;;;8.30;99.90;;;;;;5085193;28;20042;-58
2022/01/29 06:54:53;;;;;;;46.10;29.98;;;8.40;99.90;;;;;;5082325;28;20074;-57
2022/01/29 06:57:19;;;;;;;42.30;28.17;;;8.40;99.90;;;;;;5079673;28;20029;-58
2022/01/29 06:59:44;;;;;;;42.00;28.08;;;8.40;99.90;;;;;;5085434;28;20025;-58
2022/01/29 07:02:10;;;;;;;38.95;26.60;;;8.40;99.90;;;;;;5085168;28;20032;-58
2022/01/29 07:04:36;;;;;;;42.03;25.63;;;8.50;99.90;;;;;;5083608;28;20886;-58
2022/01/29 07:07:01;;;;;;;38.08;25.73;;;8.50;99.90;;;;;;5084927;28;20064;-58
2022/01/29 07:09:27;;;;;;;37.78;25.88;;;8.50;99.90;;;;;;5083411;28;20036;-57
2022/01/29 07:11:59;;;;;;;35.00;24.77;;;8.60;99.90;;;;;;5084959;28;20085;-58
2022/01/29 07:14:25;;;;;;;32.40;23.45;;;8.60;99.90;;;;;;5084974;28;20117;-58
2022/01/29 07:16:50;;;;;;;34.15;22.88;;;8.60;99.90;;;;;;5085154;28;20471;-58
2022/01/29 07:19:16;;;;;;;32.65;21.20;;;8.60;99.90;;;;;;5079323;28;20074;-58
2022/01/29 07:21:42;;;;;;;32.42;22.42;;;8.70;99.90;;;;;;5084788;28;20112;-58
2022/01/29 07:24:07;;;;;;;29.65;20.90;;;8.70;99.90;;;;;;5073010;28;20017;-58
2022/01/29 07:26:33;;;;;;;30.88;21.52;;;8.70;99.90;;;;;;5071563;28;20044;-58
2022/01/29 07:29:06;;;;;;;30.55;19.20;;;8.70;99.90;;;;;;5071262;28;20050;-59
2022/01/29 07:31:32;;;;;;;29.70;21.10;;;8.80;99.90;;;;;;5071350;28;20028;-58
2022/01/29 07:33:57;;;;;;;27.23;20.33;;;8.70;99.90;;;;;;5069500;28;20028;-58
2022/01/29 07:36:23;;;;;;;30.25;20.58;;;8.80;99.90;;;;;;5067621;28;20024;-58
2022/01/29 07:38:48;;;;;;;28.35;19.17;;;8.80;99.90;;;;;;5061326;28;20431;-58
2022/01/29 07:41:14;;;;;;;24.77;17.77;;;8.80;99.90;;;;;;5064928;28;20373;-58
2022/01/29 07:43:39;;;;;;;27.23;18.95;;;8.80;99.90;;;;;;5071510;28;20107;-58
2022/01/29 07:46:05;;;;;;;29.98;18.73;;;8.80;99.90;;;;;;5073325;28;20457;-58
2022/01/29 07:48:30;;;;;;;24.00;17.45;;;8.80;99.90;;;;;;5073033;28;20024;-58
2022/01/29 07:50:56;;;;;;;26.60;18.70;;;8.80;99.90;;;;;;5068229;28;20024;-58
2022/01/29 07:53:21;;;;;;;22.55;17.13;;;8.90;99.90;;;;;;5074813;28;20028;-58
2022/01/29 07:55:47;;;;;;;22.67;17.67;;;8.90;99.90;;;;;;5073088;28;20082;-58
2022/01/29 07:58:12;;;;;;;23.90;16.88;;;8.90;99.90;;;;;;5074897;28;20025;-58
2022/01/29 08:00:38;;;;;;;21.67;16.05;;;8.90;99.90;;;;;;5074948;28;20024;-58
2022/01/29 08:03:04;;;;;;;21.10;16.40;;;8.90;99.90;;;;;;5074332;28;20034;-58
2022/01/29 08:05:30;;;;;;;23.60;16.67;;;9.00;99.90;;;;;;5072525;28;20028;-58
2022/01/29 08:07:55;;;;;;;22.30;16.92;;;9.00;99.90;;;;;;5072313;28;20434;-58
2022/01/29 08:10:21;;;;;;;24.17;16.45;;;9.00;99.90;;;;;;5071106;28;20060;-58
2022/01/29 08:12:46;;;;;;;20.75;16.77;;;9.00;99.90;;;;;;5072466;28;20147;-58
2022/01/29 08:15:12;;;;;;;21.25;16.63;;;9.10;99.90;;;;;;5085676;28;20484;-58
2022/01/29 08:17:37;;;;;;;20.85;15.95;;;9.10;99.90;;;;;;5073004;28;20024;-58
2022/01/29 08:20:03;;;;;;;21.13;16.48;;;9.10;99.90;;;;;;5072842;28;20103;-58
2022/01/29 08:22:29;;;;;;;19.90;14.95;;;9.20;99.90;;;;;;5072775;28;20506;-58
2022/01/29 08:24:54;;;;;;;18.58;14.35;;;9.20;99.90;;;;;;5074367;28;20028;-58
2022/01/29 08:27:20;;;;;;;21.35;15.60;;;9.20;99.90;;;;;;5072462;28;20432;-58
2022/01/29 08:29:46;;;;;;;20.00;14.50;;;9.30;99.90;;;;;;5074498;28;20465;-58
2022/01/29 08:32:11;;;;;;;19.65;15.00;;;9.20;99.90;;;;;;5073992;28;20028;-58
2022/01/29 08:34:38;;;;;;;21.58;14.35;;;9.30;99.90;;;;;;5073199;28;20028;-58
2022/01/29 08:37:04;;;;;;;18.45;14.63;;;9.30;99.90;;;;;;5074005;28;20025;-58
2022/01/29 08:39:31;;;;;;;21.00;16.40;;;9.30;99.90;;;;;;5072450;28;20021;-58
2022/01/29 08:41:57;;;;;;;19.27;14.20;;;9.40;99.90;;;;;;5072111;28;20037;-58
2022/01/29 08:44:23;;;;;;;19.67;14.73;;;9.40;99.90;;;;;;5066069;28;20038;-58
2022/01/29 08:46:48;;;;;;;19.27;15.13;;;9.40;99.90;;;;;;5073132;28;20028;-58
2022/01/29 08:49:14;;;;;;;20.13;15.70;;;9.40;99.90;;;;;;5073000;28;20040;-58
2022/01/29 08:51:39;;;;;;;21.05;15.40;;;9.40;99.90;;;;;;5073285;28;20395;-57
2022/01/29 08:54:05;;;;;;;19.10;14.93;;;9.50;99.90;;;;;;5084891;28;20020;-58
2022/01/29 08:56:31;;;;;;;18.15;15.07;;;9.50;99.90;;;;;;5073702;28;20098;-58
2022/01/29 08:58:57;;;;;;;20.52;14.63;;;9.50;99.90;;;;;;5071956;28;20025;-58
2022/01/29 09:01:22;;;;;;;18.50;14.50;;;9.50;99.90;;;;;;5071003;28;20026;-58
2022/01/29 09:03:48;;;;;;;18.25;14.18;;;9.50;99.90;;;;;;5073767;28;20028;-58
2022/01/29 09:06:13;;;;;;;18.58;14.90;;;9.60;99.90;;;;;;5073484;28;20167;-58
2022/01/29 09:08:40;;;;;;;18.52;14.55;;;9.60;99.90;;;;;;5073441;28;20384;-58
2022/01/29 09:11:07;;;;;;;16.52;13.00;;;9.60;99.90;;;;;;5072176;28;20044;-58
2022/01/29 09:13:32;;;;;;;17.48;13.88;;;9.60;99.90;;;;;;5073496;28;20512;-58
2022/01/29 09:15:58;;;;;;;17.30;14.30;;;9.60;99.90;;;;;;5073241;28;20218;-58
2022/01/29 09:18:25;;;;;;;19.08;13.50;;;9.70;99.90;;;;;;5073395;28;20024;-58
2022/01/29 09:20:51;;;;;;;21.10;14.82;;;9.70;99.90;;;;;;5073613;28;20271;-58
2022/01/29 09:23:17;;;;;;;18.60;14.98;;;9.70;99.90;;;;;;5073103;28;20039;-58
2022/01/29 09:25:43;;;;;;;20.08;15.18;;;9.70;99.90;;;;;;5073222;28;20021;-58
2022/01/29 09:28:10;;;;;;;16.35;13.93;;;9.70;99.90;;;;;;5073193;28;20103;-58
2022/01/29 09:30:36;;;;;;;16.88;12.82;;;9.80;99.90;;;;;;5072263;28;20032;-58
2022/01/29 09:33:01;;;;;;;15.82;12.05;;;9.80;99.90;;;;;;5073011;28;20029;-58
2022/01/29 09:35:27;;;;;;;15.07;12.60;;;9.90;99.90;;;;;;5073011;28;20047;-57
2022/01/29 09:37:54;;;;;;;14.10;11.82;;;9.90;99.90;;;;;;5072970;28;20063;-58
2022/01/29 09:40:20;;;;;;;16.42;11.80;;;9.90;99.90;;;;;;5073015;28;20044;-61
2022/01/29 09:42:49;;;;;;;13.25;11.10;;;9.90;99.90;;;;;;5072969;28;20052;-58
2022/01/29 09:45:16;;;;;;;17.08;12.07;;;10.00;99.90;;;;;;5072777;28;20496;-58
2022/01/29 09:47:44;;;;;;;12.57;10.43;;;10.00;99.90;;;;;;5072739;28;20068;-58
2022/01/29 09:50:11;;;;;;;11.07;9.93;;;10.10;99.90;;;;;;5072838;28;20112;-58
2022/01/29 09:52:36;;;;;;;17.02;10.48;;;10.10;99.90;;;;;;5088299;28;20531;-59
2022/01/29 09:55:04;;;;;;;12.70;9.70;;;10.10;99.90;;;;;;5072861;28;20069;-58
2022/01/29 09:57:29;;;;;;;13.30;9.50;;;10.10;99.90;;;;;;5072683;28;20107;-58
2022/01/29 09:59:55;;;;;;;12.05;9.70;;;10.10;99.90;;;;;;5088594;28;20119;-58
2022/01/29 10:02:21;;;;;;;14.13;9.15;;;10.10;99.90;;;;;;5072729;28;20430;-58
2022/01/29 10:04:57;;;;;;;13.30;8.27;;;10.20;99.90;;;;;;5070658;28;20599;-58
2022/01/29 10:07:26;;;;;;;9.77;7.55;;;10.20;99.90;;;;;;5071268;28;20408;-58
2022/01/29 10:09:52;;;;;;;11.02;7.70;;;10.20;99.90;;;;;;5077308;28;20511;-58
2022/01/29 10:12:32;;;;;;;11.88;7.38;;;10.20;99.90;;;;;;5089652;28;20126;-58
2022/01/29 10:15:04;;;;;;;9.18;6.82;;;10.30;99.90;;;;;;5092838;28;20392;-58
2022/01/29 10:17:47;;;;;;;10.25;6.53;;;10.30;99.90;;;;;;5092906;28;20380;-58
2022/01/29 10:20:17;;;;;;;7.57;6.78;;;10.30;99.90;;;;;;5092766;28;20039;-58
2022/01/29 10:22:52;;;;;;;;;;;10.30;99.90;;;;;;5093153;28;20166;-58
2022/01/29 10:25:23;;;;;;;10.05;6.28;;;10.30;99.90;;;;;;5092848;28;19904;-58
2022/01/29 10:28:26;;;;;;;10.30;6.05;;;10.30;99.90;;;;;;5081298;28;20056;-59
2022/01/29 10:31:00;;;;;;;6.10;5.05;;;10.40;99.90;;;;;;5070110;28;20090;-58
2022/01/29 10:33:28;;;;;;;8.13;5.65;;;10.40;99.90;;;;;;5071893;28;20048;-58
2022/01/29 10:36:00;;;;;;;7.55;5.03;;;10.50;99.90;;;;;;5072046;28;20454;-58
2022/01/29 10:38:27;;;;;;;7.05;5.00;;;10.50;99.90;;;;;;5051073;28;20025;-58
2022/01/29 10:41:14;;;;;;;11.55;5.57;;;10.50;99.90;;;;;;5058644;28;20032;-58
2022/01/29 10:44:17;;;;;;;7.47;4.13;;;10.60;99.90;;;;;;5071336;28;20025;-58
2022/01/29 10:46:47;;;;;;;7.00;3.90;;;10.60;99.90;;;;;;5087969;28;20028;-58
2022/01/29 10:49:34;;;;;;;5.28;3.30;;;10.70;99.90;;;;;;5072315;28;20082;-58
2022/01/29 10:52:14;;;;;;;5.07;3.75;;;10.70;99.90;;;;;;5072265;28;20027;-58
2022/01/29 10:54:40;;;;;;;;;;;10.70;99.90;;;;;;5088272;28;20024;-58
2022/01/29 10:57:10;;;;;;;5.47;3.47;;;10.70;99.90;;;;;;5071702;28;19908;-58
2022/01/29 10:59:57;;;;;;;3.65;2.90;;;10.70;99.90;;;;;;5075000;28;20071;-58
2022/01/29 11:02:26;;;;;;;5.25;2.35;;;10.70;99.90;;;;;;5073099;28;20040;-58
2022/01/29 11:04:52;;;;;;;5.35;2.67;;;10.80;99.90;;;;;;5072021;28;20020;-58
2022/01/29 11:07:19;;;;;;;7.43;3.17;;;10.80;99.90;;;;;;5074186;28;20387;-58
2022/01/29 11:09:46;;;;;;;4.15;2.75;;;10.80;99.90;;;;;;5074285;28;20957;-58
2022/01/29 11:12:17;;;;;;;3.70;2.05;;;10.90;99.90;;;;;;5071444;28;20040;-58
2022/01/29 11:14:44;;;;;;;4.72;2.50;;;10.90;99.90;;;;;;5074127;28;20027;-58
2022/01/29 11:17:13;;;;;;;5.97;2.70;;;10.90;99.90;;;;;;5073997;28;20059;-58
2022/01/29 11:19:39;;;;;;;5.03;2.30;;;10.90;99.90;;;;;;5073878;28;20012;-58
2022/01/29 11:22:06;;;;;;;5.68;2.58;;;11.00;99.90;;;;;;5073832;28;20136;-58
2022/01/29 11:24:36;;;;;;;4.32;2.45;;;10.90;99.90;;;;;;5083467;28;20107;-58
2022/01/29 11:27:03;;;;;;;3.90;2.38;;;11.00;99.90;;;;;;5073885;28;20024;-58
2022/01/29 11:29:36;;;;;;;10.10;2.58;;;11.00;99.90;;;;;;5073858;28;20032;-58
2022/01/29 11:32:20;;;;;;;8.98;2.53;;;11.10;99.90;;;;;;5075006;28;20493;-58
2022/01/29 11:35:08;;;;;;;4.72;1.95;;;11.20;99.90;;;;;;5091112;28;20024;-58
2022/01/29 11:38:07;;;;;;;3.78;2.40;;;11.20;99.90;;;;;;5075243;28;20031;-58
2022/01/29 11:40:38;;;;;;;4.25;2.15;;;11.30;99.90;;;;;;5075232;28;20120;-58
2022/01/29 11:43:23;;;;;;;5.85;2.88;;;11.30;99.90;;;;;;5074369;28;20024;-58
2022/01/29 11:45:57;;;;;;;4.32;2.00;;;11.30;99.90;;;;;;5071656;28;20029;-58
2022/01/29 11:48:25;;;;;;;5.75;2.25;;;11.30;99.90;;;;;;5073617;28;20016;-58
2022/01/29 11:50:53;;;;;;;6.20;2.15;;;11.20;99.90;;;;;;5073472;28;20025;-58
2022/01/29 11:53:20;;;;;;;3.22;1.70;;;11.30;99.90;;;;;;5073406;28;20024;-58
2022/01/29 11:55:53;;;;;;;4.80;1.70;;;11.30;99.90;;;;;;5070892;28;20472;-58
2022/01/29 11:58:27;;;;;;;3.88;1.40;;;11.40;99.90;;;;;;5070863;28;20020;-58
2022/01/29 12:00:58;;;;;;;3.33;1.77;;;11.30;99.90;;;;;;5072610;28;20058;-58
2022/01/29 12:03:33;;;;;;;5.57;1.83;;;11.30;99.90;;;;;;5071055;28;20545;-59
2022/01/29 12:09:18;;;;;;;5.32;1.88;;;11.30;99.90;;;;;;5071592;28;20115;-58
2022/01/29 12:12:23;;;;;;;3.70;1.55;;;11.30;99.90;;;;;;5073595;28;20043;-58
2022/01/29 12:14:51;;;;;;;4.57;1.48;;;11.30;99.90;;;;;;5072770;28;20099;-59
2022/01/29 12:17:48;;;;;;;3.95;1.38;;;11.20;99.90;;;;;;5072665;28;20017;-58
2022/01/29 12:20:19;;;;;;;3.22;1.42;;;11.30;99.90;;;;;;5072799;28;20154;-58
2022/01/29 12:22:52;;;;;;;3.60;1.30;;;11.20;99.90;;;;;;5072816;28;20016;-58
2022/01/29 12:25:20;;;;;;;4.85;1.35;;;11.30;99.90;;;;;;5070890;28;20115;-58
2022/01/29 12:27:51;;;;;;;4.28;0.85;;;11.30;99.90;;;;;;5072283;28;20036;-58
2022/01/29 12:30:33;;;;;;;3.97;0.75;;;11.30;99.90;;;;;;5072602;28;20090;-57
2022/01/29 12:33:06;;;;;;;3.00;1.15;;;11.30;99.90;;;;;;5070879;28;20480;-58
2022/01/29 12:35:38;;;;;;;3.38;1.10;;;11.30;99.90;;;;;;5072509;28;20020;-58
2022/01/29 12:38:06;;;;;;;3.33;1.38;;;11.30;99.90;;;;;;5072219;28;20112;-58
2022/01/29 12:40:38;;;;;;;5.22;1.20;;;11.40;99.90;;;;;;5069877;28;20016;-58
2022/01/29 12:43:18;;;;;;;1.58;0.70;;;11.40;99.90;;;;;;5072293;28;20029;-58
2022/01/29 12:45:44;;;;;;;3.28;0.90;;;11.50;99.90;;;;;;5072543;28;20027;-58
2022/01/29 12:48:11;;;;;;;2.70;1.00;;;11.50;99.90;;;;;;5070956;28;20020;-59
2022/01/29 12:50:38;;;;;;;3.13;0.90;;;11.50;99.90;;;;;;5072470;28;20103;-58
2022/01/29 12:53:24;;;;;;;3.47;1.08;;;11.50;99.90;;;;;;5071994;28;20024;-58
2022/01/29 12:56:00;;;;;;;3.05;0.90;;;11.60;99.90;;;;;;5067858;28;20031;-58
2022/01/29 12:58:39;;;;;;;3.30;1.00;;;11.60;99.90;;;;;;5072000;28;20036;-59
2022/01/29 13:01:05;;;;;;;5.72;1.20;;;11.60;99.90;;;;;;5070879;28;20020;-58